Startpagina
METAR-TAF:

METAR-TAF

Vliegvelden :

Pohnpei, Micronesië

breedte: 06-59N, lengte: 158-12E, hoogte: 2 m

Actueel weer

Dit bericht is 5 uur en het 50 minuten geleden gemaakt, om 03:50 UTC
Wind 7 kt uit het oostnoordoosten
Temperatuur 32°C
Vochtigheid 63%
Druk 1006 hPa
Zicht: 24.1 km
Verspreide wolken op 1800 ft, Stapelwolken.
Gebroken wolken op 13000 ft
Gebroken wolken op 30000 ft

METAR: PTPN 190350Z 06007KT 15SM SCT018TCU BKN130 BKN300 32/24 A2972 RMK TCU SW LAST

Tijdstip: 20:40 (09:40 UTC)

Verwachting

Dit bericht is 10 uur en het 9 minuten geleden gemaakt, om 23:31 UTC
Verwachting geldig van 19 om 00 UTC tot 19 om 24 UTC
Wind 7 kt uit het oosten
Zicht: 10 km
Verspreide wolken op 1800 ft

TAF: PTPN 182331Z 1900/1924 08007KT P6SM SCT018

Waarnemingen en weersverwachtingen van meer dan 4000 vliegvelden (METAR en TAF).

De beschikbare stations zijn de gele en rode punten op de kaart.

Ga met uw muis naar het station om de naam te zien.

Klik dan om waarnemingen en weersverwachtingen te zien.

kaart wijzigen: klik op de groene knoppen met een zwart kruis om in te zoomen, op de groene knop met een streepje om uit te zoomen of op de groene pijlen voor aangrenzende kaarten.


METAR-TAF: